EDT,Max TemperatureF,Mean TemperatureF,Min TemperatureF,Max Dew PointF,MeanDew PointF,Min DewpointF,Max Humidity, Mean Humidity, Min Humidity, Max Sea Level PressureIn, Mean Sea Level PressureIn, Min Sea Level PressureIn, Max VisibilityMiles, Mean VisibilityMiles, Min VisibilityMiles, Max Wind SpeedMPH, Mean Wind SpeedMPH, Max Gust SpeedMPH,PrecipitationIn, CloudCover, Events, WindDirDegrees
2012-10-1,89,80,70,76,72,69,94,75,55,29.81,29.78,29.73,10,9,5,17,8,21,0.01,5,Fog-Rain,155
2012-10-2,86,81,75,76,73,70,94,78,61,30.00,29.85,29.76,10,10,7,16,7,20,T,5,Rain,193
2012-10-3,84,76,68,73,68,66,93,76,58,30.22,30.12,30.00,10,8,1,14,4,15,0.65,8,Rain,249
2012-10-4,80,74,68,72,69,66,97,86,74,30.26,30.21,30.17,10,8,2,12,3,14,T,7,Rain,351
2012-10-5,86,78,70,70,67,63,93,71,48,30.18,30.11,30.03,10,9,6,12,4,14,0.00,7,,52
2012-10-6,86,77,68,71,69,67,97,76,55,30.03,29.97,29.90,10,9,5,16,3,21,0.01,5,Thunderstorm,272
2012-10-7,88,79,69,73,69,65,100,74,48,30.02,29.98,29.93,10,7,2,10,3,13,0.00,4,Fog,270
2012-10-8,73,65,57,70,61,55,93,86,78,30.11,30.05,29.99,10,8,1,16,9,21,0.34,8,Rain,11
2012-10-9,71,63,54,59,54,51,100,81,61,30.16,30.11,30.07,10,8,2,14,7,24,0.00,6,,2
2012-10-10,76,66,56,60,57,54,93,74,54,30.17,30.12,30.05,10,6,0,14,4,17,0.00,5,Fog,321
2012-10-11,78,67,55,59,55,53,93,68,43,30.27,30.21,30.15,10,10,8,12,4,16,0.00,0,,38
2012-10-12,83,70,56,62,59,55,93,70,46,30.25,30.20,30.14,10,9,6,10,3,13,0.00,2,,43
2012-10-13,78,69,60,62,59,56,93,75,56,30.33,30.27,30.23,10,10,9,20,9,24,0.00,3,,52
2012-10-14,83,72,60,67,62,58,97,74,51,30.25,30.16,30.05,10,10,10,15,6,18,T,4,,59
2012-10-15,84,73,62,69,65,55,93,74,55,30.03,29.91,29.80,10,10,10,16,5,20,0.00,5,,261
2012-10-16,75,64,53,54,49,42,89,61,33,29.97,29.92,29.88,10,10,10,17,5,22,0.00,2,,358
2012-10-17,77,66,55,60,56,53,93,74,54,30.00,29.93,29.89,10,10,9,12,4,15,0.00,5,,50
2012-10-18,81,71,61,68,64,59,97,76,54,29.89,29.85,29.80,10,10,7,10,4,15,0.00,6,,190
2012-10-19,78,67,56,70,58,41,97,63,28,29.88,29.83,29.79,10,9,2,14,6,17,0.14,4,Rain,254
2012-10-20,77,64,50,52,47,43,86,59,31,29.97,29.89,29.85,10,10,10,15,6,20,0.00,0,,264
2012-10-21,77,64,50,54,50,46,93,66,38,30.15,30.07,29.97,10,10,10,10,2,14,0.00,0,,27
2012-10-22,77,64,50,53,48,43,96,64,31,30.23,30.17,30.13,10,10,10,14,4,20,0.00,1,,50
2012-10-23,80,66,51,63,57,49,96,73,49,30.19,30.15,30.11,10,10,9,13,5,16,0.00,1,,72
2012-10-24,83,71,59,65,62,59,100,73,46,30.16,30.11,30.07,10,9,7,15,6,18,0.00,2,Fog,60
2012-10-25,85,76,66,67,65,62,93,71,48,30.07,30.03,30.00,10,10,10,22,10,30,0.00,3,,55
2012-10-26,78,72,66,65,62,56,93,74,54,29.98,29.89,29.78,10,10,7,20,12,26,0.00,6,,19
2012-10-27,74,71,67,61,60,55,81,71,61,29.75,29.66,29.60,10,10,10,24,15,31,0.00,7,,351
2012-10-28,78,67,56,55,52,45,80,60,40,29.71,29.65,29.60,10,10,10,24,12,31,0.00,4,,309
2012-10-29,64,56,47,44,37,31,71,53,34,29.75,29.69,29.61,10,10,10,26,15,37,0.00,1,,295
2012-10-30,63,54,45,34,27,18,60,39,17,29.82,29.69,29.63,10,10,10,26,15,36,0.00,3,,269
2012-10-31,69,57,45,39,29,23,63,40,17,29.90,29.85,29.80,10,10,10,25,12,35,0.00,2,,263